This is the latest recevied weather packets stored in our database for station/object EA4BCR. If no packets are shown the sender has not sent any weather packets the latest 10 day(s).
| Time | Temp. | Humidity | Pressure | Rain* | Wind** | Luminosity | Snow |
|---|---|---|---|---|---|---|---|
| 1778085655 | 20° C | 33% | 1007.2 hPa | - | - | - | - |
| 1778085055 | 20.56° C | 32% | 1006.8 hPa | - | - | - | - |
| 1778084456 | 20.56° C | 30% | 1006.8 hPa | - | - | - | - |
| 1778083855 | 20.56° C | 31% | 1006.9 hPa | - | - | - | - |
| 1778083255 | 21.11° C | 31% | 1006.7 hPa | - | - | - | - |
| 1778082655 | 21.11° C | 30% | 1006.8 hPa | - | - | - | - |
| 1778082055 | 21.11° C | 29% | 1006.7 hPa | - | - | - | - |
| 1778081455 | 21.67° C | 30% | 1006.7 hPa | - | - | - | - |
| 1778080855 | 21.67° C | 31% | 1006.8 hPa | - | - | - | - |
| 1778080255 | 21.67° C | 31% | 1006.8 hPa | - | - | - | - |
| 1778079655 | 21.67° C | 30% | 1006.7 hPa | - | - | - | - |
| 1778079055 | 21.67° C | 29% | 1006.8 hPa | - | - | - | - |
| 1778078455 | 20.56° C | 33% | 1007.3 hPa | - | - | - | - |
| 1778077855 | 21.67° C | 34% | 1007.2 hPa | - | - | - | - |
| 1778077255 | 21.11° C | 32% | 1007.5 hPa | - | - | - | - |
| 1778076655 | 21.11° C | 30% | 1007.6 hPa | - | - | - | - |
| 1778076055 | 21.67° C | 31% | 1007.4 hPa | - | - | - | - |
| 1778075454 | 20° C | 34% | 1008.4 hPa | - | - | - | - |
| 1778074855 | 20.56° C | 33% | 1008.3 hPa | - | - | - | - |
| 1778074254 | 21.67° C | 31% | 1007.8 hPa | - | - | - | - |
| 1778073655 | 22.22° C | 32% | 1007.8 hPa | - | - | - | - |
| 1778073055 | 21.67° C | 30% | 1007.9 hPa | - | - | - | - |
| 1778072455 | 21.67° C | 31% | 1008 hPa | - | - | - | - |
| 1778071854 | 21.11° C | 33% | 1008.2 hPa | - | - | - | - |
| 1778071254 | 20.56° C | 33% | 1008.7 hPa | - | - | - | - |
* Rain since midnight (hover to see other rain measurements)
** Current wind speed in m/s (hover to see current wind gust speed)